Time;durP1;ratioP1;P1;durP2;ratioP2;P2;SDS_P1;SDS_P2;PMS_P1;PMS_P2;Temp;Humidity;BMP_temperature;BMP_pressure;BME280_temperature;BME280_humidity;BME280_pressure;Samples;Min_cycle;Max_cycle;Signal;HPM_P1;HPM_P2
2024/01/07 00:01:23;;;;;;;52.05;32.08;;;;;;;6.30;60.10;92389.75;5041061;28;20060;-86
2024/01/07 00:03:48;;;;;;;28.95;20.25;;;;;;;6.39;59.77;92381.78;5022273;28;20017;-86
2024/01/07 00:06:14;;;;;;;24.08;15.70;;;;;;;6.34;59.42;92366.91;5015205;28;20109;-86
2024/01/07 00:08:40;;;;;;;18.67;13.52;;;;;;;5.76;59.34;92256.09;5019468;28;20065;-86
2024/01/07 00:11:05;;;;;;;20.25;13.00;;;;;;;6.58;58.81;92363.63;5012655;28;20033;-86
2024/01/07 00:13:31;;;;;;;19.75;11.90;;;;;;;6.54;58.66;92368.00;5018167;28;20049;-86
2024/01/07 00:15:56;;;;;;;14.65;9.90;;;;;;;6.59;58.34;92365.16;5029974;28;20047;-86
2024/01/07 00:18:22;;;;;;;18.60;10.68;;;;;;;6.27;58.94;92323.59;5022814;28;20049;-87
2024/01/07 00:20:47;;;;;;;16.23;10.38;;;;;;;6.53;58.88;92352.47;5013240;28;20076;-87
2024/01/07 00:23:13;;;;;;;20.63;11.68;;;;;;;6.35;59.25;92313.00;5012904;28;20045;-87
2024/01/07 00:25:38;;;;;;;44.53;26.52;;;;;;;6.34;59.34;92315.97;5021283;28;20045;-86
2024/01/07 00:28:04;;;;;;;47.97;26.23;;;;;;;6.41;59.74;92346.03;5023278;28;20045;-86
2024/01/07 00:30:29;;;;;;;47.85;27.33;;;;;;;6.36;59.56;92337.53;5013821;28;20056;-86
2024/01/07 00:32:55;;;;;;;90.82;48.17;;;;;;;6.23;60.41;92326.13;5027747;28;20086;-86
2024/01/07 00:35:20;;;;;;;95.82;55.10;;;;;;;6.27;60.05;92331.53;5010831;28;20416;-86
2024/01/07 00:37:46;;;;;;;100.68;60.20;;;;;;;5.51;59.77;92208.47;5007768;28;20041;-86
2024/01/07 00:40:11;;;;;;;59.95;36.25;;;;;;;6.34;60.20;92321.25;5009992;28;20033;-86
2024/01/07 00:42:37;;;;;;;59.63;38.88;;;;;;;6.48;60.73;92319.09;5008862;28;20035;-87
2024/01/07 00:45:03;;;;;;;61.60;36.88;;;;;;;5.10;60.65;92109.03;5009813;28;20075;-87
2024/01/07 00:47:28;;;;;;;36.72;23.70;;;;;;;6.17;60.46;92234.25;5010828;28;20048;-87
2024/01/07 00:49:54;;;;;;;38.55;24.73;;;;;;;6.53;59.73;92275.88;5007886;28;20053;-86
2024/01/07 00:52:21;;;;;;;34.95;23.85;;;;;;;6.76;59.41;92298.97;5021551;28;20072;-86
2024/01/07 00:54:46;;;;;;;28.95;16.33;;;;;;;5.94;59.05;92171.22;5035862;28;20024;-87
2024/01/07 00:57:14;;;;;;;20.30;14.88;;;;;;;6.43;59.85;92269.91;5016201;28;20040;-86
2024/01/07 00:59:40;;;;;;;20.67;13.25;;;;;;;5.99;61.34;92242.28;5012737;28;20124;-86
2024/01/07 01:02:05;;;;;;;24.35;12.02;;;;;;;6.14;60.98;92237.50;5027756;28;20140;-87
2024/01/07 01:04:30;;;;;;;16.42;11.50;;;;;;;6.47;60.43;92282.44;5042232;28;20065;-86
2024/01/07 01:06:56;;;;;;;19.95;13.52;;;;;;;6.45;60.65;92277.50;5028967;28;20432;-86
2024/01/07 01:09:21;;;;;;;19.40;14.07;;;;;;;6.37;61.14;92278.34;5010902;28;20128;-86
2024/01/07 01:11:47;;;;;;;23.00;13.35;;;;;;;6.42;60.73;92272.84;5007211;28;20120;-86
2024/01/07 01:14:12;;;;;;;20.70;13.15;;;;;;;6.45;60.39;92274.88;5019552;28;20037;-86
2024/01/07 01:16:38;;;;;;;18.77;14.55;;;;;;;6.04;60.30;92216.78;5017342;28;20072;-86
2024/01/07 01:19:03;;;;;;;24.35;17.25;;;;;;;6.52;60.27;92259.25;5045200;28;20025;-87
2024/01/07 01:21:29;;;;;;;20.40;14.63;;;;;;;6.50;60.69;92239.56;5010990;28;20537;-86
2024/01/07 01:23:54;;;;;;;22.45;15.45;;;;;;;5.48;60.12;92073.88;5020259;28;20083;-86
2024/01/07 01:26:20;;;;;;;25.00;15.88;;;;;;;6.46;60.44;92233.41;5015904;28;20137;-86
2024/01/07 01:28:45;;;;;;;25.85;17.00;;;;;;;6.05;59.83;92150.50;5007721;28;20046;-87
2024/01/07 01:31:14;;;;;;;29.80;21.95;;;;;;;6.34;61.26;92210.34;5007879;28;20390;-86
2024/01/07 01:33:40;;;;;;;35.58;23.30;;;;;;;6.37;61.11;92189.34;5014499;28;20041;-86
2024/01/07 01:36:06;;;;;;;35.25;20.33;;;;;;;5.33;61.14;92035.72;5005763;28;20285;-86
2024/01/07 01:38:31;;;;;;;37.58;24.42;;;;;;;6.48;61.41;92195.00;5007149;28;20041;-86
2024/01/07 01:40:57;;;;;;;45.05;26.20;;;;;;;6.39;60.50;92173.19;5007912;28;20520;-87
2024/01/07 01:43:27;;;;;;;40.63;28.08;;;;;;;6.64;60.22;92190.63;5003047;28;20038;-86
2024/01/07 01:45:56;;;;;;;33.38;22.23;;;;;;;6.70;59.80;92186.66;5005781;28;20061;-86
2024/01/07 01:48:27;;;;;;;61.83;36.20;;;;;;;6.75;59.81;92167.97;5013769;28;20065;-86
2024/01/07 01:50:57;;;;;;;62.38;35.13;;;;;;;6.75;59.68;92156.66;5004782;28;20048;-86
2024/01/07 01:53:24;;;;;;;41.85;27.60;;;;;;;6.82;58.97;92144.41;5002313;28;20587;-87
2024/01/07 01:55:50;;;;;;;40.78;27.15;;;;;;;6.13;59.12;92061.75;5015819;28;20038;-86
2024/01/07 01:58:19;;;;;;;41.15;26.75;;;;;;;6.53;58.81;92133.25;5015473;28;20574;-86
2024/01/07 02:00:45;;;;;;;36.20;21.60;;;;;;;6.65;59.24;92139.31;5012029;28;20571;-87
2024/01/07 02:03:13;;;;;;;30.77;20.08;;;;;;;6.56;58.85;92127.31;5005653;28;20494;-86
2024/01/07 02:05:38;;;;;;;35.00;19.60;;;;;;;5.07;58.82;91906.03;5002558;28;20042;-86
2024/01/07 02:08:05;;;;;;;21.30;16.77;;;;;;;6.16;59.06;92058.53;4999241;28;20049;-87
2024/01/07 02:10:34;;;;;;;27.95;18.25;;;;;;;6.68;58.83;92146.63;5016889;28;20231;-86
2024/01/07 02:13:00;;;;;;;23.65;15.88;;;;;;;5.78;59.05;92013.88;5000615;28;20037;-87
2024/01/07 02:15:31;;;;;;;24.05;16.75;;;;;;;6.71;59.08;92132.72;5002799;28;20030;-87
2024/01/07 02:17:56;;;;;;;29.38;18.25;;;;;;;6.43;59.07;92092.22;5012514;28;20524;-87
2024/01/07 02:20:23;;;;;;;32.58;19.85;;;;;;;6.47;60.30;92108.94;5006288;28;20041;-86
2024/01/07 02:22:48;;;;;;;35.30;22.77;;;;;;;6.61;60.53;92109.38;5003490;28;20044;-86
2024/01/07 02:25:13;;;;;;;33.00;20.85;;;;;;;6.57;60.89;92079.47;5004583;28;20037;-85
2024/01/07 02:27:39;;;;;;;28.38;17.98;;;;;;;6.48;61.57;92067.47;5009027;28;20658;-85
2024/01/07 02:30:05;;;;;;;32.90;20.98;;;;;;;6.48;61.32;92073.50;5018892;28;20029;-85
2024/01/07 02:32:35;;;;;;;30.35;21.58;;;;;;;6.40;62.21;92064.59;5014838;28;20045;-85
2024/01/07 02:35:01;;;;;;;34.13;19.35;;;;;;;6.39;62.17;92038.53;5039259;28;20049;-85
2024/01/07 02:37:27;;;;;;;26.92;17.60;;;;;;;5.07;63.16;91848.84;5015766;28;25000;-86
2024/01/07 02:39:52;;;;;;;26.90;16.67;;;;;;;6.10;64.15;92036.03;5003263;28;20545;-86
2024/01/07 02:42:17;;;;;;;27.08;16.73;;;;;;;6.34;64.18;92059.88;5039153;28;20443;-86
2024/01/07 02:44:43;;;;;;;20.98;15.23;;;;;;;5.74;63.50;91950.44;5006045;28;20041;-86
2024/01/07 02:47:08;;;;;;;20.15;13.68;;;;;;;6.29;64.03;92044.22;5021967;28;20498;-86
2024/01/07 02:49:37;;;;;;;25.92;15.70;;;;;;;6.58;63.22;92056.47;5036086;28;20044;-86
2024/01/07 02:52:03;;;;;;;21.88;14.73;;;;;;;5.75;61.77;91904.53;5016898;28;20067;-87
2024/01/07 02:54:28;;;;;;;25.55;15.98;;;;;;;6.59;62.25;92060.66;5006094;28;20431;-85
2024/01/07 02:56:56;;;;;;;25.27;16.55;;;;;;;6.65;61.98;92035.56;5001865;28;20107;-86
2024/01/07 02:59:22;;;;;;;24.27;16.10;;;;;;;6.50;62.06;92018.50;5003847;28;20045;-86
2024/01/07 03:01:47;;;;;;;23.75;15.15;;;;;;;6.62;63.60;92060.75;5012173;28;21445;-87
2024/01/07 03:04:15;;;;;;;18.23;13.48;;;;;;;6.51;64.22;92046.44;5008055;28;20039;-86
2024/01/07 03:06:40;;;;;;;20.52;12.90;;;;;;;6.55;65.03;92088.81;5020373;28;20182;-86
2024/01/07 03:09:07;;;;;;;17.15;12.60;;;;;;;5.70;65.26;91981.22;4998567;28;20036;-85
2024/01/07 03:11:33;;;;;;;17.23;12.77;;;;;;;4.83;66.21;91872.47;5035119;28;20700;-86
2024/01/07 03:14:00;;;;;;;18.17;12.27;;;;;;;6.47;66.34;92097.59;5020853;28;20044;-85
2024/01/07 03:16:26;;;;;;;19.60;11.18;;;;;;;5.79;67.37;91999.59;5002407;28;20435;-86
2024/01/07 03:18:52;;;;;;;15.93;8.88;;;;;;;5.76;68.68;91972.00;5005423;28;20037;-86
2024/01/07 03:21:24;;;;;;;8.32;6.07;;;;;;;6.35;71.55;92111.56;5036153;28;20136;-86
2024/01/07 03:23:51;;;;;;;15.52;8.80;;;;;;;4.65;72.70;91881.59;5004116;28;20037;-85
2024/01/07 03:26:18;;;;;;;11.93;9.55;;;;;;;5.04;71.92;91910.06;5011653;28;20108;-85
2024/01/07 03:28:44;;;;;;;18.52;11.48;;;;;;;6.69;70.46;92116.47;5021385;28;20041;-85
2024/01/07 03:31:15;;;;;;;15.88;10.70;;;;;;;6.56;69.45;92075.28;5007245;28;20025;-86
2024/01/07 03:33:42;;;;;;;18.83;10.05;;;;;;;6.71;70.00;92108.19;5012516;28;20443;-86
2024/01/07 03:36:14;;;;;;;15.80;9.82;;;;;;;6.60;70.65;92102.59;5003461;28;20041;-85
2024/01/07 03:38:41;;;;;;;16.05;9.60;;;;;;;6.05;70.70;92013.28;5007376;28;20102;-85
2024/01/07 03:41:06;;;;;;;13.85;9.35;;;;;;;6.22;70.32;91991.19;5005321;28;20152;-85
2024/01/07 03:43:35;;;;;;;13.48;10.57;;;;;;;7.12;69.61;92101.91;5016199;28;20048;-85
2024/01/07 03:46:00;;;;;;;12.20;8.80;;;;;;;7.17;68.76;92077.88;5003464;28;20025;-86
2024/01/07 03:48:28;;;;;;;10.35;8.52;;;;;;;7.37;68.13;92076.19;5002893;28;20374;-85
2024/01/07 03:50:54;;;;;;;8.43;5.80;;;;;;;7.30;68.13;92063.53;5003061;28;20052;-85
2024/01/07 03:53:22;;;;;;;8.80;5.35;;;;;;;7.29;67.65;92038.19;5022408;28;20578;-85
2024/01/07 03:55:51;;;;;;;9.70;5.90;;;;;;;6.28;67.50;91877.16;4998579;28;20033;-85
2024/01/07 03:58:17;;;;;;;6.97;5.82;;;;;;;7.18;67.04;91992.97;5002796;28;20487;-86
2024/01/07 04:00:42;;;;;;;7.57;5.97;;;;;;;7.17;66.67;91972.16;5017174;28;20021;-85
2024/01/07 04:03:11;;;;;;;10.90;5.97;;;;;;;7.73;65.91;92025.09;5010862;28;20041;-86
2024/01/07 04:05:37;;;;;;;7.82;4.88;;;;;;;7.88;66.22;92056.09;5015804;28;20037;-86
2024/01/07 04:08:03;;;;;;;7.88;6.07;;;;;;;7.51;67.61;92061.50;5020112;28;20056;-85
2024/01/07 04:10:32;;;;;;;15.73;8.63;;;;;;;7.05;68.55;92023.16;5030175;28;20030;-85
2024/01/07 04:12:58;;;;;;;12.15;8.35;;;;;;;6.21;66.98;91857.72;5002606;28;20076;-84
2024/01/07 04:15:24;;;;;;;19.08;11.85;;;;;;;6.54;66.00;91882.06;5011574;28;20437;-84
2024/01/07 04:17:49;;;;;;;18.20;10.43;;;;;;;7.32;66.76;92044.69;5055707;28;20044;-85
2024/01/07 04:20:15;;;;;;;14.90;10.23;;;;;;;7.03;66.72;91995.53;5024708;28;20085;-85
2024/01/07 04:22:40;;;;;;;11.10;8.18;;;;;;;7.45;67.26;92054.91;5026247;28;20041;-85
2024/01/07 04:25:08;;;;;;;14.38;9.48;;;;;;;7.45;66.48;92025.03;5026828;28;20101;-86
2024/01/07 04:27:34;;;;;;;16.80;8.68;;;;;;;7.85;65.30;92059.41;5032104;28;20106;-85
2024/01/07 04:30:01;;;;;;;18.58;12.65;;;;;;;7.54;65.05;91980.69;5010752;28;20030;-85
2024/01/07 04:32:26;;;;;;;14.48;10.15;;;;;;;8.08;64.56;92036.56;5018845;28;20033;-85
2024/01/07 04:34:52;;;;;;;8.40;5.28;;;;;;;8.15;65.08;92020.88;5024640;28;20042;-85
2024/01/07 04:37:17;;;;;;;8.10;5.63;;;;;;;8.16;65.44;92033.00;5022803;28;20089;-85
2024/01/07 04:39:42;;;;;;;5.15;3.40;;;;;;;7.05;66.42;91888.38;5037547;28;20022;-84
2024/01/07 04:42:08;;;;;;;4.80;3.97;;;;;;;8.00;67.22;92040.16;5052479;28;20044;-85
2024/01/07 04:44:33;;;;;;;4.60;3.33;;;;;;;7.99;67.89;92043.91;5005430;28;20216;-84
2024/01/07 04:46:59;;;;;;;7.10;5.45;;;;;;;7.91;68.17;92021.78;5017770;28;20618;-85
2024/01/07 04:49:30;;;;;;;5.00;4.00;;;;;;;7.46;67.75;91937.44;5021328;28;20396;-86
2024/01/07 04:51:55;;;;;;;5.50;4.18;;;;;;;8.11;67.38;92004.16;4985605;28;20029;-84
2024/01/07 04:54:21;;;;;;;10.50;7.22;;;;;;;7.85;66.66;91966.78;4995513;28;20038;-84
2024/01/07 04:56:46;;;;;;;7.93;4.38;;;;;;;8.30;67.08;92027.28;4986106;28;20093;-85
2024/01/07 04:59:12;;;;;;;5.88;4.28;;;;;;;8.34;66.71;92039.50;4986159;28;20041;-84
2024/01/07 05:01:37;;;;;;;3.83;3.30;;;;;;;6.75;66.83;91811.31;5004128;28;20639;-85
2024/01/07 05:04:03;;;;;;;9.40;4.80;;;;;;;8.43;66.25;92045.41;4988182;28;20073;-87
2024/01/07 05:06:28;;;;;;;12.60;5.63;;;;;;;7.98;65.75;91957.66;4988980;28;20041;-84
2024/01/07 05:08:53;;;;;;;8.07;5.95;;;;;;;7.50;68.57;92003.66;5028519;28;20515;-86
2024/01/07 05:11:19;;;;;;;10.10;7.25;;;;;;;7.95;68.32;92038.53;5005403;28;20038;-86
2024/01/07 05:13:44;;;;;;;9.32;6.03;;;;;;;8.04;66.86;92036.50;5039484;28;20511;-87
2024/01/07 05:16:20;;;;;;;14.48;7.07;;;;;;;7.79;65.95;91965.50;5007227;28;20029;-86
2024/01/07 05:18:48;;;;;;;7.85;6.43;;;;;;;7.37;65.36;91891.88;5006325;28;20037;-86
2024/01/07 05:21:15;;;;;;;13.73;6.82;;;;;;;8.41;64.69;92020.38;5042346;28;20049;-86
2024/01/07 05:23:41;;;;;;;7.32;5.80;;;;;;;7.97;64.36;91956.16;5006392;28;20466;-86
2024/01/07 05:26:06;;;;;;;8.15;6.43;;;;;;;8.33;64.41;92011.47;5038803;28;20033;-86
2024/01/07 05:28:32;;;;;;;9.88;6.72;;;;;;;8.18;65.23;92014.88;5006901;28;20049;-86
2024/01/07 05:30:57;;;;;;;9.63;6.47;;;;;;;8.21;65.09;92022.16;5007242;28;20021;-87
2024/01/07 05:33:23;;;;;;;9.30;5.65;;;;;;;8.39;64.63;92025.25;5005834;28;20045;-86
2024/01/07 05:35:57;;;;;;;8.80;6.45;;;;;;;8.47;63.85;92025.06;5005676;28;20042;-85
2024/01/07 05:38:23;;;;;;;11.45;6.10;;;;;;;8.45;63.42;92021.22;5005147;28;20431;-86
2024/01/07 05:40:48;;;;;;;9.02;6.95;;;;;;;7.86;63.02;91920.69;5008201;28;20583;-86
2024/01/07 05:43:14;;;;;;;9.18;6.15;;;;;;;8.38;63.81;92023.69;5019185;28;20510;-86
2024/01/07 05:45:39;;;;;;;6.75;5.78;;;;;;;8.45;63.96;92010.63;5005262;28;20080;-86
2024/01/07 05:48:05;;;;;;;12.07;7.30;;;;;;;8.46;62.98;91993.63;5037516;28;20530;-86
2024/01/07 05:50:30;;;;;;;11.10;7.72;;;;;;;8.53;62.64;92012.34;5004817;28;20084;-86
2024/01/07 05:52:55;;;;;;;8.80;7.32;;;;;;;8.29;63.14;91989.44;5003370;28;20609;-86
2024/01/07 05:55:21;;;;;;;8.98;6.72;;;;;;;8.19;62.80;91983.88;5018426;28;20052;-86
2024/01/07 05:57:46;;;;;;;11.85;6.90;;;;;;;8.53;62.98;92020.28;5006465;28;20040;-86
2024/01/07 06:00:12;;;;;;;7.28;6.22;;;;;;;7.95;64.49;92006.00;5004797;28;20048;-86
2024/01/07 06:02:38;;;;;;;9.77;6.45;;;;;;;6.57;70.76;92037.19;5032408;28;20706;-86
2024/01/07 06:05:04;;;;;;;8.93;6.55;;;;;;;6.42;73.35;92030.72;5037534;28;20045;-86
2024/01/07 06:07:29;;;;;;;12.70;8.38;;;;;;;6.84;70.84;91994.25;5006622;28;20409;-86
2024/01/07 06:09:55;;;;;;;9.18;6.70;;;;;;;6.31;71.07;91905.50;5006383;28;20024;-86
2024/01/07 06:12:20;;;;;;;6.97;5.93;;;;;;;7.10;70.07;91988.56;5036821;28;20147;-86
2024/01/07 06:14:45;;;;;;;8.75;7.25;;;;;;;7.48;68.23;92014.56;5005839;28;20637;-86
2024/01/07 06:17:11;;;;;;;12.65;7.88;;;;;;;6.90;70.60;92009.88;5005283;28;20068;-86
2024/01/07 06:19:36;;;;;;;21.85;15.27;;;;;;;6.43;71.75;91970.75;5004897;28;20057;-87
2024/01/07 06:22:03;;;;;;;16.67;11.70;;;;;;;7.16;69.91;91999.69;5005923;28;20088;-85
2024/01/07 06:24:28;;;;;;;15.68;9.85;;;;;;;7.02;70.32;92007.97;5004375;28;20053;-84
2024/01/07 06:26:54;;;;;;;12.98;9.05;;;;;;;6.81;68.44;91931.50;5007311;28;20448;-87
2024/01/07 06:29:19;;;;;;;15.85;10.05;;;;;;;7.64;67.76;92017.25;5003137;28;20084;-86
2024/01/07 06:31:45;;;;;;;13.63;9.45;;;;;;;7.12;69.65;92026.03;5007019;28;20029;-84
2024/01/07 06:34:13;;;;;;;14.30;8.50;;;;;;;6.81;68.96;91934.16;5037492;28;20025;-86
2024/01/07 06:36:41;;;;;;;15.18;9.35;;;;;;;7.78;67.62;92043.38;5008775;28;20112;-87
2024/01/07 06:39:07;;;;;;;15.93;8.60;;;;;;;6.93;69.57;91993.34;5035808;28;20088;-87
2024/01/07 06:41:33;;;;;;;10.15;8.52;;;;;;;6.72;70.95;92015.41;5039458;28;20038;-85
2024/01/07 06:43:58;;;;;;;12.38;8.65;;;;;;;7.09;71.38;92049.72;5036966;28;20037;-85
2024/01/07 06:46:24;;;;;;;9.93;8.43;;;;;;;7.64;68.36;92049.75;5033474;28;20115;-85
2024/01/07 06:48:49;;;;;;;12.25;8.30;;;;;;;7.76;67.42;92041.06;5003748;28;20523;-85
2024/01/07 06:51:15;;;;;;;13.63;9.10;;;;;;;7.13;66.90;91944.84;5038186;28;20033;-85
2024/01/07 06:53:40;;;;;;;17.48;10.38;;;;;;;7.91;66.51;92058.06;5004767;28;20513;-85
2024/01/07 06:56:06;;;;;;;15.18;11.45;;;;;;;7.98;66.33;92047.66;5002854;28;20529;-84
2024/01/07 06:58:32;;;;;;;14.98;10.35;;;;;;;8.18;66.18;92051.97;5005367;28;20056;-85
2024/01/07 07:00:57;;;;;;;13.15;9.93;;;;;;;8.18;65.44;92044.03;5006020;28;20049;-87
2024/01/07 07:03:27;;;;;;;16.88;9.50;;;;;;;6.69;68.15;91912.28;5006679;28;20080;-86
2024/01/07 07:05:58;;;;;;;11.38;8.82;;;;;;;7.49;67.44;91987.00;5024545;28;20038;-86
2024/01/07 07:08:24;;;;;;;12.63;8.98;;;;;;;7.63;68.20;92050.13;5024293;28;20044;-86
2024/01/07 07:10:50;;;;;;;15.13;8.98;;;;;;;6.45;71.70;91975.72;5022083;28;20037;-85
2024/01/07 07:13:15;;;;;;;12.48;8.43;;;;;;;6.15;72.46;91906.50;5019786;28;20719;-85
2024/01/07 07:15:41;;;;;;;9.55;7.72;;;;;;;7.10;72.05;92048.59;5032962;28;20019;-86
2024/01/07 07:18:06;;;;;;;12.98;9.18;;;;;;;6.72;74.44;92041.06;5002011;28;20512;-83
2024/01/07 07:20:31;;;;;;;17.70;10.43;;;;;;;6.89;74.31;92042.69;5035232;28;20582;-83
2024/01/07 07:22:57;;;;;;;19.10;10.75;;;;;;;6.75;74.29;92030.56;5033483;28;20073;-83
2024/01/07 07:25:25;;;;;;;19.25;9.98;;;;;;;6.67;75.89;92034.13;5000714;28;20038;-83
2024/01/07 07:27:50;;;;;;;13.30;9.00;;;;;;;6.64;73.61;91958.19;5002963;28;20060;-83
2024/01/07 07:30:16;;;;;;;10.60;8.73;;;;;;;6.98;74.03;92022.19;5003236;28;20037;-82
2024/01/07 07:32:41;;;;;;;11.98;8.32;;;;;;;6.85;73.87;91981.81;5003938;28;20037;-84
2024/01/07 07:35:07;;;;;;;12.10;8.90;;;;;;;7.37;71.30;91970.44;5000708;28;20041;-84
2024/01/07 07:37:46;;;;;;;;;;;;;;;;;;;;;
2024/01/07 07:40:12;;;;;;;7.57;6.57;;;;;;;6.34;73.75;91941.06;5002316;28;20056;-83
2024/01/07 07:42:39;;;;;;;14.30;7.80;;;;;;;7.02;72.08;91959.63;5002684;28;20091;-87
2024/01/07 07:45:05;;;;;;;8.70;5.43;;;;;;;7.52;69.66;92031.31;5002101;28;20038;-82
2024/01/07 07:47:30;;;;;;;6.38;4.65;;;;;;;5.86;70.48;91820.44;5002981;28;20053;-84
2024/01/07 07:50:00;;;;;;;6.50;5.07;;;;;;;6.19;71.70;91892.34;4999128;28;20410;-84
2024/01/07 07:52:26;;;;;;;8.93;6.05;;;;;;;6.65;71.46;91956.31;5004104;28;20148;-85
2024/01/07 07:54:52;;;;;;;13.27;9.25;;;;;;;5.97;72.50;91822.28;5002311;28;20132;-85
2024/01/07 07:57:20;;;;;;;14.30;9.15;;;;;;;7.07;71.48;91952.25;4996723;28;20600;-85
2024/01/07 07:59:46;;;;;;;21.15;13.02;;;;;;;6.88;69.49;91869.41;4999901;28;20525;-85
2024/01/07 08:02:12;;;;;;;14.20;11.55;;;;;;;7.23;68.96;91902.84;5034473;28;20398;-85
2024/01/07 08:04:41;;;;;;;19.80;12.98;;;;;;;7.94;68.24;92002.56;5030555;28;20053;-85
2024/01/07 08:07:10;;;;;;;14.80;12.48;;;;;;;8.26;67.58;92032.50;4996956;28;20527;-85
2024/01/07 08:09:38;;;;;;;19.88;12.50;;;;;;;7.06;67.40;91852.13;4999744;28;20488;-85
2024/01/07 08:12:05;;;;;;;15.18;11.00;;;;;;;8.43;66.86;92036.69;4999510;28;20065;-86
2024/01/07 08:14:31;;;;;;;13.73;10.23;;;;;;;8.07;66.70;91976.81;5031719;28;20042;-85
2024/01/07 08:16:57;;;;;;;16.15;12.80;;;;;;;8.34;67.05;92023.63;5000518;28;20115;-83
2024/01/07 08:19:22;;;;;;;16.98;13.85;;;;;;;7.82;70.02;92017.75;4996929;28;20504;-81
2024/01/07 08:21:48;;;;;;;15.48;12.43;;;;;;;8.11;69.01;92012.84;5029582;28;20030;-84
2024/01/07 08:24:13;;;;;;;13.55;11.30;;;;;;;8.50;67.54;92027.03;4997260;28;20096;-83
2024/01/07 08:26:39;;;;;;;19.65;13.45;;;;;;;8.57;67.62;92023.78;4998130;28;20076;-84
2024/01/07 08:29:05;;;;;;;14.05;10.50;;;;;;;8.68;66.54;92027.44;4999520;28;20559;-83
2024/01/07 08:31:34;;;;;;;12.98;10.00;;;;;;;7.22;65.24;91800.06;5002327;28;20560;-83
2024/01/07 08:33:59;;;;;;;13.63;9.23;;;;;;;7.82;66.97;91959.53;4994657;28;20095;-83
2024/01/07 08:36:25;;;;;;;13.73;9.85;;;;;;;8.03;67.08;91960.06;5004848;28;20049;-83
2024/01/07 08:38:50;;;;;;;13.73;8.75;;;;;;;7.33;65.83;91843.41;4995913;28;21208;-82
2024/01/07 08:41:16;;;;;;;9.88;7.25;;;;;;;7.17;66.25;91832.03;5007966;28;20073;-85
2024/01/07 08:43:42;;;;;;;10.85;8.43;;;;;;;8.36;65.28;91949.91;4996098;28;20037;-84
2024/01/07 08:46:07;;;;;;;12.73;8.98;;;;;;;8.89;64.44;92027.19;5000270;28;20496;-87
2024/01/07 08:48:33;;;;;;;12.52;9.55;;;;;;;8.03;65.98;91944.16;4997921;28;20423;-87
2024/01/07 08:50:58;;;;;;;14.52;10.52;;;;;;;8.07;67.08;92022.56;5029658;28;20034;-88
2024/01/07 08:53:24;;;;;;;13.70;9.98;;;;;;;8.23;67.78;92022.59;5003025;28;20046;-87
2024/01/07 08:55:49;;;;;;;17.48;10.75;;;;;;;7.38;68.82;91866.97;5002378;28;20046;-88
2024/01/07 08:58:17;;;;;;;10.65;8.77;;;;;;;6.60;69.36;91811.28;5010755;28;20022;-87
2024/01/07 09:00:42;;;;;;;13.82;10.55;;;;;;;7.50;70.87;91932.22;5023219;28;20025;-87
2024/01/07 09:03:09;;;;;;;14.23;9.15;;;;;;;6.42;70.98;91816.84;5028203;28;20299;-89
2024/01/07 09:05:34;;;;;;;14.88;9.60;;;;;;;7.28;70.40;91936.19;5026304;28;20041;-89
2024/01/07 09:08:00;;;;;;;15.68;9.32;;;;;;;7.94;70.15;92001.81;5023948;28;20847;-87
2024/01/07 09:10:26;;;;;;;15.00;9.88;;;;;;;7.51;69.58;91926.59;5027946;28;20088;-87
2024/01/07 09:12:53;;;;;;;12.35;9.55;;;;;;;7.71;70.27;92023.50;5039865;28;20022;-89
2024/01/07 09:15:20;;;;;;;11.50;9.40;;;;;;;7.43;70.24;91953.22;5035719;28;20104;-86
2024/01/07 09:17:46;;;;;;;14.20;10.30;;;;;;;8.24;69.33;92042.66;5064541;28;20415;-84
2024/01/07 09:20:12;;;;;;;10.35;9.02;;;;;;;7.75;70.05;92028.91;5029096;28;20720;-87
2024/01/07 09:22:37;;;;;;;11.80;9.55;;;;;;;7.98;70.73;92027.25;5029574;28;20172;-88
2024/01/07 09:25:04;;;;;;;10.35;8.27;;;;;;;7.76;71.21;92032.34;5033661;28;20022;-87
2024/01/07 09:27:30;;;;;;;10.48;8.13;;;;;;;7.77;70.83;92021.44;5002737;28;20890;-87
2024/01/07 09:29:55;;;;;;;12.30;9.20;;;;;;;7.11;70.84;91954.97;5001226;28;20046;-86
2024/01/07 09:32:21;;;;;;;9.50;8.27;;;;;;;7.66;70.93;92028.28;4996501;28;20134;-85
2024/01/07 09:34:46;;;;;;;11.85;9.38;;;;;;;7.39;70.75;92000.69;5000445;28;20112;-85
2024/01/07 09:37:12;;;;;;;12.10;9.63;;;;;;;7.58;71.33;92035.22;4967228;28;20026;-86
2024/01/07 09:39:41;;;;;;;12.48;9.15;;;;;;;7.68;70.87;92021.53;4968822;28;20513;-86
2024/01/07 09:42:14;;;;;;;16.23;10.23;;;;;;;8.13;70.74;92017.78;4968530;28;20085;-86
2024/01/07 09:44:42;;;;;;;13.13;9.82;;;;;;;8.50;68.42;91981.25;4967911;28;20043;-86
2024/01/07 09:47:13;;;;;;;14.52;9.68;;;;;;;8.84;66.80;92014.19;4981645;28;20125;-87
2024/01/07 09:49:39;;;;;;;12.00;9.80;;;;;;;8.79;66.97;92014.44;4993349;28;20085;-88
2024/01/07 09:52:05;;;;;;;14.80;9.43;;;;;;;8.36;67.72;92005.53;4989518;28;20449;-87
2024/01/07 09:54:32;;;;;;;12.18;9.68;;;;;;;8.14;69.11;92017.47;4989400;28;20034;-87
2024/01/07 09:57:02;;;;;;;14.70;10.25;;;;;;;8.01;68.74;91920.72;4987231;28;20118;-87
2024/01/07 09:59:31;;;;;;;14.32;9.90;;;;;;;8.42;67.51;92016.59;4995700;28;20171;-88
2024/01/07 10:01:57;;;;;;;12.93;9.50;;;;;;;8.00;67.94;92013.69;5000568;28;20039;-83
2024/01/07 10:04:29;;;;;;;12.93;9.57;;;;;;;8.58;67.65;92018.16;4993812;28;20049;-85
2024/01/07 10:06:55;;;;;;;14.05;9.02;;;;;;;8.44;66.49;91959.53;4986977;28;20037;-85
2024/01/07 10:09:27;;;;;;;13.82;8.93;;;;;;;8.63;66.96;91989.84;4980061;28;20042;-84
2024/01/07 10:11:53;;;;;;;12.70;9.20;;;;;;;7.83;65.65;91823.44;4986329;28;20042;-84
2024/01/07 10:14:22;;;;;;;13.25;9.32;;;;;;;8.97;65.70;91986.44;4983611;28;20532;-84
2024/01/07 10:16:47;;;;;;;11.65;8.38;;;;;;;8.91;65.32;91977.22;4983379;28;20042;-85
2024/01/07 10:19:19;;;;;;;14.10;9.25;;;;;;;9.27;64.68;91976.09;4980570;28;20037;-85
2024/01/07 10:21:45;;;;;;;10.90;9.18;;;;;;;7.78;64.98;91835.06;4983140;28;20124;-84
2024/01/07 10:24:11;;;;;;;18.67;11.68;;;;;;;8.57;66.77;91976.09;4985368;28;20047;-85
2024/01/07 10:26:40;;;;;;;11.52;8.70;;;;;;;8.90;65.62;91968.50;4982086;28;21197;-85
2024/01/07 10:29:07;;;;;;;13.60;9.45;;;;;;;8.63;64.40;91947.44;5014903;28;20197;-85
2024/01/07 10:31:33;;;;;;;12.65;8.32;;;;;;;8.41;67.58;91973.44;5006920;28;20064;-85
2024/01/07 10:33:58;;;;;;;15.75;10.82;;;;;;;8.61;67.18;91931.16;5006226;28;20380;-85
2024/01/07 10:36:25;;;;;;;18.33;11.82;;;;;;;9.29;66.02;91960.63;5035238;28;20050;-85
2024/01/07 10:38:51;;;;;;;20.58;11.85;;;;;;;8.83;64.69;91858.91;4994201;28;20087;-85
2024/01/07 10:41:24;;;;;;;14.95;11.18;;;;;;;9.64;64.47;91960.50;5037591;28;20049;-85
2024/01/07 10:43:50;;;;;;;16.40;11.57;;;;;;;9.76;63.73;91960.38;5000841;28;20041;-85
2024/01/07 10:46:16;;;;;;;13.25;10.48;;;;;;;9.58;64.88;91956.63;4994345;28;20072;-86
2024/01/07 10:48:55;;;;;;;13.18;10.18;;;;;;;9.53;63.66;91956.91;5032833;28;20080;-84
2024/01/07 10:51:21;;;;;;;12.70;9.05;;;;;;;8.59;63.68;91844.81;5004123;28;20071;-85
2024/01/07 10:53:54;;;;;;;13.55;10.10;;;;;;;9.44;63.77;91957.09;5032714;28;20040;-85
2024/01/07 10:56:23;;;;;;;15.07;11.13;;;;;;;9.29;63.74;91960.63;5037613;28;20045;-85
2024/01/07 10:58:59;;;;;;;14.07;10.73;;;;;;;9.30;63.43;91885.22;5012322;28;20509;-85
2024/01/07 11:01:25;;;;;;;13.52;10.05;;;;;;;9.21;64.92;91949.09;5007456;28;20049;-85
2024/01/07 11:04:10;;;;;;;11.23;9.52;;;;;;;9.00;65.31;91943.31;5018821;28;20032;-85
2024/01/07 11:06:46;;;;;;;12.82;9.00;;;;;;;9.64;63.77;91949.91;5022728;28;20100;-84
2024/01/07 11:09:26;;;;;;;59.95;42.30;;;;;;;9.67;61.75;91955.28;5039573;28;20568;-85
2024/01/07 11:11:52;;;;;;;12.10;8.60;;;;;;;8.74;62.58;91876.91;5030954;28;20120;-84
2024/01/07 11:14:39;;;;;;;14.07;8.75;;;;;;;9.82;61.98;91948.34;5010113;28;20311;-85
2024/01/07 11:17:06;;;;;;;14.73;8.50;;;;;;;8.91;63.01;91954.13;4998342;28;20215;-85
2024/01/07 11:19:32;;;;;;;11.63;7.70;;;;;;;8.01;66.00;91917.28;5008542;28;20072;-85
2024/01/07 11:22:29;;;;;;;10.35;8.02;;;;;;;8.10;67.26;91949.66;5005482;28;20527;-85
2024/01/07 11:24:56;;;;;;;14.45;7.30;;;;;;;8.63;65.31;91944.81;5019517;28;20053;-85
2024/01/07 11:27:22;;;;;;;8.07;6.85;;;;;;;9.24;63.46;91961.66;5022937;28;20025;-86
2024/01/07 11:29:55;;;;;;;10.40;7.60;;;;;;;9.46;61.25;91960.19;5020269;28;20037;-86